Time;durP1;ratioP1;P1;durP2;ratioP2;P2;SDS_P1;SDS_P2;PMS_P1;PMS_P2;Temp;Humidity;BMP_temperature;BMP_pressure;BME280_temperature;BME280_humidity;BME280_pressure;Samples;Min_cycle;Max_cycle;Signal;HPM_P1;HPM_P2
2023/06/03 00:00:20;;;;;;;6.30;3.08;;;17.50;54.70;;;;;;5004642;28;20042;-63
2023/06/03 00:02:47;;;;;;;6.28;3.47;;;17.50;54.90;;;;;;5007412;28;20045;-61
2023/06/03 00:05:17;;;;;;;10.52;3.65;;;17.40;55.00;;;;;;5007039;28;20130;-62
2023/06/03 00:07:43;;;;;;;6.22;3.90;;;17.30;55.10;;;;;;5005467;28;20034;-62
2023/06/03 00:10:09;;;;;;;4.28;3.30;;;17.30;55.10;;;;;;5006664;28;20516;-63
2023/06/03 00:12:35;;;;;;;5.30;3.53;;;17.30;55.20;;;;;;5002975;28;20788;-63
2023/06/03 00:15:00;;;;;;;6.63;3.40;;;17.30;55.50;;;;;;5004687;28;20044;-63
2023/06/03 00:17:30;;;;;;;6.97;3.58;;;17.20;55.40;;;;;;5001990;28;20040;-62
2023/06/03 00:19:56;;;;;;;7.28;3.65;;;17.20;55.50;;;;;;5006231;28;20038;-63
2023/06/03 00:22:23;;;;;;;7.80;3.45;;;17.10;55.70;;;;;;5007173;28;20034;-63
2023/06/03 00:24:49;;;;;;;6.50;3.72;;;17.10;55.80;;;;;;5003185;28;20448;-63
2023/06/03 00:27:15;;;;;;;6.45;3.83;;;17.00;55.90;;;;;;5006311;28;20030;-64
2023/06/03 00:29:40;;;;;;;8.15;3.40;;;17.00;56.10;;;;;;5004465;28;20046;-63
2023/06/03 00:32:06;;;;;;;7.07;3.40;;;16.90;56.10;;;;;;5006412;28;20034;-63
2023/06/03 00:34:32;;;;;;;5.85;3.50;;;16.90;56.20;;;;;;5003107;28;20049;-62
2023/06/03 00:36:57;;;;;;;7.50;3.55;;;16.90;56.40;;;;;;5003291;28;20080;-63
2023/06/03 00:39:23;;;;;;;8.82;3.65;;;16.80;56.50;;;;;;5004343;28;20037;-63
2023/06/03 00:41:48;;;;;;;6.15;3.25;;;16.80;56.70;;;;;;5004333;28;20061;-63
2023/06/03 00:44:14;;;;;;;5.60;3.38;;;16.70;56.80;;;;;;5004309;28;20398;-62
2023/06/03 00:46:41;;;;;;;7.72;3.80;;;16.70;56.90;;;;;;5001633;28;20084;-63
2023/06/03 00:49:07;;;;;;;7.22;3.42;;;16.70;57.00;;;;;;5002412;28;20033;-63
2023/06/03 00:51:35;;;;;;;5.93;3.75;;;16.60;57.00;;;;;;5004385;28;20038;-63
2023/06/03 00:54:01;;;;;;;7.70;3.65;;;16.60;57.10;;;;;;5003688;28;20125;-63
2023/06/03 00:56:27;;;;;;;6.90;3.08;;;16.60;57.10;;;;;;5005284;28;20128;-63
2023/06/03 00:58:53;;;;;;;7.05;3.90;;;16.60;57.20;;;;;;5003663;28;20034;-63
2023/06/03 01:01:21;;;;;;;6.28;3.55;;;16.60;57.20;;;;;;5006052;28;20543;-63
2023/06/03 01:03:47;;;;;;;5.53;3.55;;;16.60;57.30;;;;;;5005093;28;20034;-63
2023/06/03 01:06:45;;;;;;;7.50;3.80;;;16.60;58.00;;;;;;5005259;28;20095;-63
2023/06/03 01:09:22;;;;;;;6.65;3.63;;;16.60;58.00;;;;;;5004456;28;20034;-63
2023/06/03 01:12:02;;;;;;;7.78;3.63;;;16.50;57.90;;;;;;5006175;28;20033;-63
2023/06/03 01:14:48;;;;;;;5.35;3.28;;;16.50;57.70;;;;;;5003896;28;20038;-63
2023/06/03 01:17:16;;;;;;;5.75;3.65;;;16.50;58.00;;;;;;5000172;28;21625;-63
2023/06/03 01:19:48;;;;;;;6.22;3.60;;;16.50;57.60;;;;;;5000918;28;20670;-63
2023/06/03 01:22:20;;;;;;;4.75;3.05;;;16.50;58.00;;;;;;4998814;28;20041;-63
2023/06/03 01:24:48;;;;;;;5.00;3.53;;;16.40;57.80;;;;;;4999904;28;20440;-63
2023/06/03 01:27:14;;;;;;;7.25;4.32;;;16.40;57.90;;;;;;5001948;28;20059;-63
2023/06/03 01:29:42;;;;;;;7.38;3.83;;;16.40;58.00;;;;;;5000635;28;20034;-63
2023/06/03 01:32:13;;;;;;;4.78;3.53;;;16.30;58.20;;;;;;4997897;28;21003;-63
2023/06/03 01:34:41;;;;;;;10.57;4.40;;;16.30;58.50;;;;;;5001663;28;20061;-63
2023/06/03 01:37:09;;;;;;;6.60;3.83;;;16.30;58.40;;;;;;5002142;28;20424;-63
2023/06/03 01:39:39;;;;;;;6.80;3.78;;;16.20;58.20;;;;;;5002170;28;20301;-63
2023/06/03 01:42:06;;;;;;;11.93;4.60;;;16.20;58.30;;;;;;5001249;28;20453;-63
2023/06/03 01:44:32;;;;;;;8.82;3.85;;;16.20;58.50;;;;;;5001269;28;20136;-63
2023/06/03 01:46:57;;;;;;;6.68;4.25;;;16.10;58.50;;;;;;5003350;28;20524;-63
2023/06/03 01:49:24;;;;;;;9.45;4.15;;;16.10;58.60;;;;;;5002824;28;20361;-63
2023/06/03 01:51:49;;;;;;;10.88;4.57;;;16.10;58.70;;;;;;5000105;28;20042;-62
2023/06/03 01:54:15;;;;;;;8.50;4.22;;;16.00;58.70;;;;;;5003309;28;20049;-63
2023/06/03 01:56:42;;;;;;;8.60;4.38;;;16.00;58.90;;;;;;5002713;28;20030;-63
2023/06/03 01:59:07;;;;;;;7.00;3.95;;;15.90;58.90;;;;;;5002259;28;20034;-62
2023/06/03 02:01:33;;;;;;;5.57;4.18;;;15.90;59.00;;;;;;5004622;28;20575;-63
2023/06/03 02:03:59;;;;;;;6.85;4.43;;;15.90;59.10;;;;;;5003359;28;20023;-63
2023/06/03 02:06:25;;;;;;;5.70;4.03;;;15.90;59.10;;;;;;4997032;28;20121;-62
2023/06/03 02:08:50;;;;;;;9.75;4.38;;;15.90;59.20;;;;;;4980162;28;20087;-62
2023/06/03 02:11:16;;;;;;;5.75;4.25;;;15.90;59.20;;;;;;5000307;28;20046;-63
2023/06/03 02:13:41;;;;;;;7.38;4.18;;;15.80;59.20;;;;;;4998526;28;20037;-63
2023/06/03 02:16:07;;;;;;;6.97;3.40;;;15.80;59.30;;;;;;4997880;28;20489;-62
2023/06/03 02:18:34;;;;;;;8.25;4.30;;;15.80;59.30;;;;;;4999056;28;20079;-63
2023/06/03 02:21:00;;;;;;;8.73;3.80;;;15.80;59.30;;;;;;4998713;28;20394;-63
2023/06/03 02:23:26;;;;;;;7.28;3.80;;;15.80;59.30;;;;;;4996293;28;20510;-63
2023/06/03 02:25:52;;;;;;;6.82;3.88;;;15.80;59.30;;;;;;5000798;28;20096;-63
2023/06/03 02:28:17;;;;;;;5.97;3.55;;;15.80;59.30;;;;;;4997193;28;20144;-63
2023/06/03 02:30:43;;;;;;;6.90;3.65;;;15.80;59.30;;;;;;4996939;28;20482;-62
2023/06/03 02:33:09;;;;;;;8.07;3.88;;;15.80;59.30;;;;;;4998428;28;20317;-61
2023/06/03 02:35:35;;;;;;;10.10;3.47;;;15.80;59.40;;;;;;5000202;28;20037;-62
2023/06/03 02:38:00;;;;;;;5.82;3.60;;;15.80;59.50;;;;;;4999880;28;20737;-62
2023/06/03 02:40:26;;;;;;;7.20;3.67;;;15.80;59.50;;;;;;4997237;28;20062;-63
2023/06/03 02:42:52;;;;;;;9.98;4.00;;;15.70;59.40;;;;;;4999302;28;20038;-63
2023/06/03 02:45:17;;;;;;;8.80;3.53;;;15.70;59.50;;;;;;4999497;28;20179;-63
2023/06/03 02:47:43;;;;;;;6.43;3.80;;;15.70;59.60;;;;;;5001121;28;20030;-62
2023/06/03 02:50:09;;;;;;;8.40;3.70;;;15.60;59.60;;;;;;5001359;28;20061;-63
2023/06/03 02:52:35;;;;;;;6.07;3.17;;;15.60;59.70;;;;;;5000915;28;20497;-63
2023/06/03 02:55:01;;;;;;;6.97;3.75;;;15.60;59.70;;;;;;4991176;28;20041;-63
2023/06/03 02:57:27;;;;;;;4.93;3.60;;;15.60;59.70;;;;;;5004198;28;20030;-63
2023/06/03 02:59:53;;;;;;;8.70;3.90;;;15.60;59.80;;;;;;5006557;28;20558;-63
2023/06/03 03:02:24;;;;;;;6.28;3.50;;;15.50;59.80;;;;;;5008386;28;20136;-63
2023/06/03 03:04:49;;;;;;;6.82;3.63;;;15.50;59.90;;;;;;5003556;28;20100;-63
2023/06/03 03:07:17;;;;;;;9.38;3.88;;;15.50;59.90;;;;;;5001398;28;20616;-62
2023/06/03 03:09:42;;;;;;;6.03;3.42;;;15.50;60.00;;;;;;5004844;28;20274;-62
2023/06/03 03:12:08;;;;;;;6.05;3.67;;;15.50;60.10;;;;;;5001131;28;20025;-63
2023/06/03 03:14:34;;;;;;;6.10;3.50;;;15.50;60.20;;;;;;5000071;28;20540;-62
2023/06/03 03:17:00;;;;;;;7.63;3.60;;;15.40;60.10;;;;;;5003067;28;20049;-62
2023/06/03 03:19:25;;;;;;;5.72;3.55;;;15.40;60.10;;;;;;4985619;28;20034;-63
2023/06/03 03:21:51;;;;;;;5.47;3.33;;;15.40;60.20;;;;;;5000843;28;20038;-63
2023/06/03 03:24:17;;;;;;;11.77;4.07;;;15.40;60.30;;;;;;5004346;28;20042;-63
2023/06/03 03:26:43;;;;;;;8.25;3.85;;;15.40;60.30;;;;;;5001771;28;20660;-63
2023/06/03 03:29:08;;;;;;;6.65;3.55;;;15.30;60.40;;;;;;5004886;28;20041;-63
2023/06/03 03:31:34;;;;;;;8.95;4.05;;;15.30;60.30;;;;;;5004143;28;20089;-63
2023/06/03 03:34:02;;;;;;;7.32;3.60;;;15.30;60.40;;;;;;5003223;28;20034;-63
2023/06/03 03:36:28;;;;;;;8.65;3.55;;;15.40;60.80;;;;;;5001074;28;20034;-63
2023/06/03 03:39:03;;;;;;;5.03;3.33;;;15.20;60.60;;;;;;5002012;28;20048;-63
2023/06/03 03:41:30;;;;;;;7.72;3.60;;;15.20;61.00;;;;;;5005493;28;20042;-62
2023/06/03 03:43:56;;;;;;;9.05;3.97;;;15.20;60.70;;;;;;5004465;28;20421;-63
2023/06/03 03:46:21;;;;;;;5.38;3.45;;;15.20;60.80;;;;;;5004460;28;20192;-63
2023/06/03 03:48:47;;;;;;;10.30;3.78;;;15.10;60.90;;;;;;5005261;28;20150;-63
2023/06/03 03:51:13;;;;;;;6.85;3.67;;;15.10;61.00;;;;;;5004282;28;20037;-63
2023/06/03 03:53:46;;;;;;;7.28;3.50;;;15.00;61.00;;;;;;5003756;28;20041;-63
2023/06/03 03:56:20;;;;;;;7.57;3.78;;;15.00;61.30;;;;;;5005993;28;20041;-63
2023/06/03 03:58:47;;;;;;;8.23;3.95;;;15.00;61.70;;;;;;5005360;28;20030;-63
2023/06/03 04:01:17;;;;;;;7.25;4.18;;;15.00;61.50;;;;;;5007600;28;20042;-63
2023/06/03 04:03:46;;;;;;;5.70;3.35;;;15.00;61.70;;;;;;5005918;28;20061;-62
2023/06/03 04:06:36;;;;;;;7.97;3.55;;;14.90;61.70;;;;;;5000186;28;20096;-63
2023/06/03 04:09:04;;;;;;;11.20;3.50;;;14.90;62.70;;;;;;4992874;28;20093;-62
2023/06/03 04:11:37;;;;;;;5.95;3.35;;;14.90;61.90;;;;;;5001356;28;20026;-63
2023/06/03 04:14:03;;;;;;;7.28;3.58;;;14.90;61.80;;;;;;5002222;28;20030;-63
2023/06/03 04:16:38;;;;;;;7.57;3.80;;;14.90;62.00;;;;;;5001892;28;20528;-63
2023/06/03 04:19:06;;;;;;;7.68;3.50;;;14.80;62.10;;;;;;5000724;28;20092;-63
2023/06/03 04:21:37;;;;;;;6.22;3.50;;;14.80;62.20;;;;;;5001354;28;20038;-63
2023/06/03 04:24:05;;;;;;;7.32;3.75;;;14.70;62.40;;;;;;5000555;28;20131;-63
2023/06/03 04:26:30;;;;;;;5.97;3.33;;;14.70;62.70;;;;;;5003236;28;20579;-63
2023/06/03 04:28:56;;;;;;;7.07;3.40;;;14.70;62.70;;;;;;5001956;28;20073;-63
2023/06/03 04:31:21;;;;;;;6.60;3.75;;;14.70;62.90;;;;;;5001719;28;20042;-63
2023/06/03 04:33:48;;;;;;;8.15;3.78;;;14.70;62.80;;;;;;5000717;28;20037;-63
2023/06/03 04:36:13;;;;;;;8.00;3.30;;;14.60;63.10;;;;;;5001133;28;20060;-63
2023/06/03 04:38:41;;;;;;;6.88;3.53;;;14.70;63.00;;;;;;5000399;28;20038;-63
2023/06/03 04:41:10;;;;;;;9.73;4.38;;;14.60;63.20;;;;;;5003524;28;20038;-63
2023/06/03 04:43:38;;;;;;;9.73;4.05;;;14.60;63.30;;;;;;5003754;28;20157;-63
2023/06/03 04:46:06;;;;;;;8.40;3.58;;;14.60;63.40;;;;;;5003915;28;20044;-63
2023/06/03 04:48:33;;;;;;;7.60;3.50;;;14.60;63.60;;;;;;4999066;28;20193;-63
2023/06/03 04:51:00;;;;;;;19.67;3.70;;;14.60;63.90;;;;;;5003619;28;20045;-63
2023/06/03 04:53:26;;;;;;;7.18;3.47;;;14.60;63.80;;;;;;4997954;28;20395;-62
2023/06/03 04:55:52;;;;;;;7.50;3.45;;;14.60;63.80;;;;;;5004671;28;20045;-63
2023/06/03 04:58:18;;;;;;;11.32;3.90;;;14.70;64.20;;;;;;5000953;28;20640;-63
2023/06/03 05:00:45;;;;;;;6.72;3.50;;;14.70;64.10;;;;;;5001014;28;20038;-63
2023/06/03 05:03:11;;;;;;;6.40;3.90;;;14.70;64.10;;;;;;5003273;28;20521;-63
2023/06/03 05:05:44;;;;;;;10.27;3.97;;;14.70;64.20;;;;;;5001301;28;20125;-63
2023/06/03 05:08:12;;;;;;;7.90;3.83;;;14.70;64.60;;;;;;5002998;28;20468;-63
2023/06/03 05:10:38;;;;;;;6.10;3.92;;;14.80;64.60;;;;;;5003796;28;20034;-63
2023/06/03 05:13:08;;;;;;;9.38;4.13;;;14.80;64.50;;;;;;5001488;28;20408;-63
2023/06/03 05:15:34;;;;;;;7.25;3.70;;;14.80;64.60;;;;;;5004034;28;20202;-62
2023/06/03 05:18:03;;;;;;;7.00;3.45;;;14.80;64.90;;;;;;5002999;28;20108;-63
2023/06/03 05:20:31;;;;;;;8.77;3.58;;;14.80;65.00;;;;;;5000616;28;20042;-62
2023/06/03 05:22:57;;;;;;;7.80;4.07;;;14.80;65.10;;;;;;5001626;28;20541;-62
2023/06/03 05:25:23;;;;;;;7.82;3.78;;;14.90;65.00;;;;;;5002882;28;20120;-63
2023/06/03 05:27:48;;;;;;;7.47;3.72;;;14.90;65.20;;;;;;5003417;28;20029;-62
2023/06/03 05:30:14;;;;;;;6.93;3.58;;;14.90;64.80;;;;;;4997328;28;20498;-63
2023/06/03 05:32:41;;;;;;;9.98;4.03;;;14.90;64.70;;;;;;4998174;28;20064;-63
2023/06/03 05:35:08;;;;;;;6.25;3.90;;;15.00;65.00;;;;;;5000054;28;20034;-63
2023/06/03 05:37:33;;;;;;;5.45;3.50;;;15.10;65.00;;;;;;5000659;28;20048;-63
2023/06/03 05:39:59;;;;;;;8.20;3.88;;;15.20;64.70;;;;;;4998967;28;20034;-63
2023/06/03 05:42:25;;;;;;;10.45;4.13;;;15.30;64.70;;;;;;4998492;28;20193;-63
2023/06/03 05:44:50;;;;;;;6.82;4.03;;;15.30;64.50;;;;;;4998978;28;20026;-63
2023/06/03 05:47:16;;;;;;;8.50;3.97;;;15.40;64.30;;;;;;5000771;28;20045;-63
2023/06/03 05:49:41;;;;;;;7.40;3.45;;;15.40;64.50;;;;;;5001094;28;20757;-63
2023/06/03 05:52:07;;;;;;;6.70;3.80;;;15.50;64.10;;;;;;4999086;28;20041;-63
2023/06/03 05:54:33;;;;;;;8.13;3.75;;;15.50;64.10;;;;;;4985662;28;20432;-62
2023/06/03 05:56:58;;;;;;;9.45;3.80;;;15.60;64.10;;;;;;5003797;28;20058;-63
2023/06/03 05:59:24;;;;;;;6.38;3.60;;;15.60;64.00;;;;;;5004015;28;20568;-63
2023/06/03 06:01:50;;;;;;;7.45;3.60;;;15.70;64.10;;;;;;5003491;28;20034;-61
2023/06/03 06:04:16;;;;;;;7.03;3.83;;;15.80;64.10;;;;;;4989177;28;20454;-62
2023/06/03 06:06:42;;;;;;;8.23;3.83;;;15.80;64.00;;;;;;4995828;28;20080;-63
2023/06/03 06:09:07;;;;;;;6.95;4.00;;;15.90;63.80;;;;;;4992105;28;20033;-62
2023/06/03 06:11:33;;;;;;;7.57;4.38;;;16.00;63.60;;;;;;4998582;28;20452;-63
2023/06/03 06:13:59;;;;;;;5.03;3.58;;;16.10;63.40;;;;;;4982916;28;20092;-61
2023/06/03 06:16:25;;;;;;;6.32;3.65;;;16.10;63.20;;;;;;4990281;28;20127;-62
2023/06/03 06:18:51;;;;;;;6.82;3.67;;;16.20;63.10;;;;;;4998168;28;20589;-63
2023/06/03 06:21:16;;;;;;;8.70;3.65;;;16.30;63.10;;;;;;4994787;28;20533;-63
2023/06/03 06:23:45;;;;;;;7.75;3.65;;;16.40;62.70;;;;;;4994679;28;20125;-62
2023/06/03 06:26:14;;;;;;;8.43;3.97;;;16.50;62.70;;;;;;4998922;28;20045;-63
2023/06/03 06:28:41;;;;;;;7.07;4.00;;;16.50;62.50;;;;;;4997882;28;20068;-63
2023/06/03 06:31:06;;;;;;;8.70;3.60;;;16.60;62.50;;;;;;4997303;28;20038;-63
2023/06/03 06:33:35;;;;;;;6.78;3.67;;;16.60;62.40;;;;;;4999919;28;20026;-62
2023/06/03 06:36:29;;;;;;;7.95;3.60;;;16.70;62.20;;;;;;4998254;28;20056;-63
2023/06/03 06:38:56;;;;;;;8.02;3.88;;;16.80;63.10;;;;;;4990652;28;20362;-61
2023/06/03 06:41:22;;;;;;;7.45;3.65;;;16.90;61.70;;;;;;4995916;28;20114;-63
2023/06/03 06:43:47;;;;;;;7.85;3.95;;;17.00;61.60;;;;;;4997675;28;20116;-63
2023/06/03 06:46:13;;;;;;;9.20;4.00;;;17.10;61.60;;;;;;4998888;28;20129;-63
2023/06/03 06:48:39;;;;;;;6.80;3.88;;;17.10;61.50;;;;;;4980112;28;20030;-62
2023/06/03 06:51:06;;;;;;;9.05;4.07;;;17.20;61.20;;;;;;4996573;28;20687;-62
2023/06/03 06:53:35;;;;;;;9.02;3.92;;;17.20;61.10;;;;;;4994286;28;20080;-61
2023/06/03 06:56:08;;;;;;;6.47;3.75;;;17.40;61.00;;;;;;4993068;28;20118;-63
2023/06/03 06:58:35;;;;;;;6.43;3.90;;;17.40;60.90;;;;;;4991082;28;20153;-62
2023/06/03 07:01:05;;;;;;;8.95;4.35;;;17.50;60.70;;;;;;4993882;28;20037;-62
2023/06/03 07:03:31;;;;;;;8.30;4.03;;;17.50;60.40;;;;;;4989101;28;20041;-62
2023/06/03 07:05:57;;;;;;;9.40;4.15;;;17.70;60.30;;;;;;4994948;28;20037;-62
2023/06/03 07:08:24;;;;;;;9.13;4.13;;;17.70;60.50;;;;;;4997803;28;20061;-62
2023/06/03 07:10:51;;;;;;;8.45;4.13;;;17.70;60.30;;;;;;4980997;28;20074;-62
2023/06/03 07:13:16;;;;;;;8.20;4.38;;;17.90;60.30;;;;;;4998072;28;20029;-61
2023/06/03 07:15:43;;;;;;;6.65;3.90;;;17.90;60.00;;;;;;4998809;28;20096;-63
2023/06/03 07:18:10;;;;;;;7.80;4.03;;;18.00;60.00;;;;;;4997724;28;20061;-62
2023/06/03 07:20:42;;;;;;;9.10;4.32;;;18.10;60.00;;;;;;4991543;28;20148;-63
2023/06/03 07:23:10;;;;;;;8.30;4.25;;;18.10;59.80;;;;;;4998625;28;20164;-63
2023/06/03 07:25:46;;;;;;;10.20;4.20;;;18.20;59.50;;;;;;4993533;28;20042;-63
2023/06/03 07:28:13;;;;;;;8.65;4.43;;;18.20;59.40;;;;;;4994720;28;20035;-63
2023/06/03 07:30:40;;;;;;;8.98;4.72;;;18.30;59.40;;;;;;4989964;28;20457;-63
2023/06/03 07:33:10;;;;;;;7.97;3.88;;;18.40;59.20;;;;;;5001047;28;20037;-63
2023/06/03 07:35:36;;;;;;;8.05;4.38;;;18.40;59.50;;;;;;4979759;28;20049;-62
2023/06/03 07:38:05;;;;;;;7.22;3.95;;;18.50;59.50;;;;;;5000847;28;20058;-62
2023/06/03 07:40:43;;;;;;;6.63;4.20;;;18.60;59.70;;;;;;4995295;28;20034;-62
2023/06/03 07:43:10;;;;;;;10.35;4.22;;;18.70;59.30;;;;;;5000670;28;20391;-62
2023/06/03 07:45:36;;;;;;;10.18;4.28;;;18.70;59.20;;;;;;4999657;28;21936;-62
2023/06/03 07:48:03;;;;;;;10.40;4.20;;;18.80;59.10;;;;;;4992783;28;20121;-62
2023/06/03 07:50:30;;;;;;;7.43;3.85;;;18.90;59.20;;;;;;4997448;28;20046;-63
2023/06/03 07:53:04;;;;;;;7.57;3.95;;;19.00;59.10;;;;;;4999643;28;20313;-62
2023/06/03 07:55:44;;;;;;;6.07;4.05;;;19.10;59.00;;;;;;5005608;28;20061;-63
2023/06/03 07:58:10;;;;;;;9.07;4.45;;;19.20;58.70;;;;;;5004944;28;20058;-63
2023/06/03 08:00:42;;;;;;;8.35;4.43;;;19.30;58.60;;;;;;5005256;28;20038;-62
2023/06/03 08:03:07;;;;;;;7.22;4.68;;;19.40;58.40;;;;;;5008013;28;20176;-62
2023/06/03 08:05:37;;;;;;;7.95;4.15;;;19.40;58.20;;;;;;4989713;28;20121;-62
2023/06/03 08:08:09;;;;;;;8.32;3.90;;;19.50;58.10;;;;;;5004970;28;20132;-62
2023/06/03 08:10:35;;;;;;;7.20;4.28;;;19.60;58.20;;;;;;5004281;28;20508;-63
2023/06/03 08:13:02;;;;;;;7.28;4.03;;;19.60;58.10;;;;;;5006712;28;20041;-63
2023/06/03 08:15:32;;;;;;;6.80;4.07;;;19.70;58.00;;;;;;4983678;28;20034;-64
2023/06/03 08:17:59;;;;;;;9.75;4.40;;;19.80;58.10;;;;;;5006340;28;20514;-63
2023/06/03 08:20:28;;;;;;;7.82;4.50;;;20.00;58.10;;;;;;5006436;28;20068;-63
2023/06/03 08:22:55;;;;;;;5.30;4.18;;;20.00;57.90;;;;;;5007193;28;20029;-63
2023/06/03 08:25:21;;;;;;;10.38;4.72;;;20.20;57.80;;;;;;4988980;28;20045;-63
2023/06/03 08:27:48;;;;;;;5.90;4.05;;;20.30;57.70;;;;;;5006390;28;20026;-63
2023/06/03 08:30:14;;;;;;;6.28;4.32;;;20.40;57.50;;;;;;5006180;28;20037;-64
2023/06/03 08:32:41;;;;;;;6.10;4.50;;;20.50;57.20;;;;;;5005850;28;20038;-63
2023/06/03 08:35:08;;;;;;;6.07;4.10;;;20.60;57.10;;;;;;5006242;28;20038;-63
2023/06/03 08:37:34;;;;;;;4.43;3.75;;;20.60;57.30;;;;;;5007452;28;20034;-63
2023/06/03 08:40:09;;;;;;;11.55;4.80;;;20.80;57.30;;;;;;5007252;28;20502;-62
2023/06/03 08:42:45;;;;;;;6.47;4.15;;;20.80;56.90;;;;;;5006250;28;20037;-63
2023/06/03 08:45:16;;;;;;;5.60;4.18;;;20.90;56.70;;;;;;5007193;28;20030;-62
2023/06/03 08:48:00;;;;;;;7.22;3.92;;;21.10;56.60;;;;;;4986735;28;20063;-63
2023/06/03 08:50:27;;;;;;;7.68;4.32;;;21.20;56.90;;;;;;5006795;28;20026;-63
2023/06/03 08:52:55;;;;;;;10.18;4.60;;;21.30;56.60;;;;;;5006030;28;20500;-63
2023/06/03 08:55:21;;;;;;;8.18;4.80;;;21.40;56.20;;;;;;5006616;28;20597;-63
2023/06/03 08:58:12;;;;;;;5.57;4.32;;;21.50;55.50;;;;;;5007473;28;20034;-62
2023/06/03 09:00:39;;;;;;;11.57;5.10;;;21.60;55.20;;;;;;5004011;28;20581;-63
2023/06/03 09:03:06;;;;;;;7.18;4.65;;;21.60;55.40;;;;;;5006282;28;20088;-63
2023/06/03 09:05:35;;;;;;;6.55;4.47;;;21.70;55.50;;;;;;5005614;28;20036;-62
2023/06/03 09:08:02;;;;;;;9.57;4.70;;;21.70;55.40;;;;;;4984875;28;20041;-63
2023/06/03 09:10:30;;;;;;;9.57;4.30;;;21.80;55.60;;;;;;5004571;28;20030;-61
2023/06/03 09:12:58;;;;;;;7.43;4.60;;;21.90;55.40;;;;;;5005478;28;20362;-63
2023/06/03 09:15:24;;;;;;;8.10;4.57;;;21.90;55.40;;;;;;5004473;28;20521;-62
2023/06/03 09:17:50;;;;;;;7.40;4.60;;;22.00;55.30;;;;;;5007126;28;20034;-62
2023/06/03 09:20:15;;;;;;;7.18;4.57;;;22.10;55.00;;;;;;5006262;28;20411;-62
2023/06/03 09:22:43;;;;;;;6.47;4.55;;;22.20;55.00;;;;;;5000075;28;20606;-63
2023/06/03 09:25:09;;;;;;;8.43;4.90;;;22.20;54.90;;;;;;5006394;28;20175;-63
2023/06/03 09:27:35;;;;;;;8.07;5.25;;;22.30;54.50;;;;;;5008132;28;20041;-63
2023/06/03 09:30:04;;;;;;;8.00;4.53;;;22.30;54.30;;;;;;5007109;28;20553;-63
2023/06/03 09:32:30;;;;;;;6.13;4.32;;;22.30;54.40;;;;;;5006585;28;20069;-63
2023/06/03 09:34:56;;;;;;;8.50;5.05;;;22.40;54.60;;;;;;5008091;28;20034;-63
2023/06/03 09:37:22;;;;;;;7.90;4.20;;;22.50;54.50;;;;;;5000680;28;20042;-63
2023/06/03 09:39:50;;;;;;;8.15;4.72;;;22.50;54.70;;;;;;4998740;28;20087;-63
2023/06/03 09:42:16;;;;;;;8.77;4.25;;;22.60;54.30;;;;;;5000437;28;20092;-63
2023/06/03 09:44:54;;;;;;;7.78;4.63;;;22.70;54.20;;;;;;5001061;28;20038;-63
2023/06/03 09:47:20;;;;;;;7.50;4.20;;;22.80;54.00;;;;;;4999650;28;20041;-63
2023/06/03 09:50:12;;;;;;;8.57;4.72;;;22.90;54.00;;;;;;5000819;28;20042;-63
2023/06/03 09:52:38;;;;;;;6.68;5.05;;;23.00;53.50;;;;;;4997931;28;20041;-62
2023/06/03 09:55:06;;;;;;;10.35;4.40;;;23.10;53.80;;;;;;5000850;28;20038;-63
2023/06/03 09:57:32;;;;;;;8.68;4.25;;;23.20;53.60;;;;;;4999587;28;20034;-63
2023/06/03 10:00:11;;;;;;;7.50;5.18;;;23.30;53.40;;;;;;5001143;28;20557;-62
2023/06/03 10:02:38;;;;;;;7.32;4.50;;;23.40;52.30;;;;;;4999664;28;20127;-63
2023/06/03 10:05:04;;;;;;;6.07;3.95;;;23.50;53.00;;;;;;5000113;28;20061;-63
2023/06/03 10:07:30;;;;;;;5.45;4.18;;;23.50;52.90;;;;;;5000237;28;20040;-63
2023/06/03 10:10:07;;;;;;;8.27;5.00;;;23.60;52.80;;;;;;5003037;28;20038;-63
2023/06/03 10:12:33;;;;;;;9.20;5.20;;;23.60;52.40;;;;;;4999551;28;20041;-63
2023/06/03 10:14:59;;;;;;;5.65;3.88;;;23.70;52.30;;;;;;5002268;28;20046;-62
2023/06/03 10:17:24;;;;;;;7.30;4.32;;;23.80;52.60;;;;;;5000081;28;20038;-63
2023/06/03 10:19:50;;;;;;;6.65;4.07;;;23.80;52.50;;;;;;4999304;28;20410;-63
2023/06/03 10:22:18;;;;;;;5.25;3.78;;;23.90;52.20;;;;;;5002072;28;20398;-63
2023/06/03 10:24:48;;;;;;;8.38;4.28;;;24.00;52.00;;;;;;4998834;28;20422;-63
2023/06/03 10:27:16;;;;;;;8.75;4.40;;;24.10;51.70;;;;;;5003447;28;20116;-63
2023/06/03 10:29:41;;;;;;;5.50;4.13;;;24.20;51.80;;;;;;5005380;28;20129;-62
2023/06/03 10:32:14;;;;;;;4.38;3.85;;;24.30;51.60;;;;;;5007658;28;20113;-63
2023/06/03 10:34:41;;;;;;;11.13;4.10;;;24.40;51.40;;;;;;5001696;28;20030;-63
2023/06/03 10:37:09;;;;;;;8.02;4.13;;;24.50;51.40;;;;;;5007819;28;20041;-63
2023/06/03 10:39:35;;;;;;;6.05;4.15;;;24.60;51.10;;;;;;4999019;28;20125;-63
2023/06/03 10:42:03;;;;;;;5.20;4.13;;;24.70;51.00;;;;;;5002412;28;20508;-64
2023/06/03 10:44:30;;;;;;;6.78;4.07;;;24.80;51.00;;;;;;4998974;28;20049;-62
2023/06/03 10:47:22;;;;;;;7.07;3.95;;;24.90;50.60;;;;;;5002523;28;20409;-63
2023/06/03 10:49:53;;;;;;;6.72;4.30;;;25.00;50.30;;;;;;4999159;28;20092;-63
2023/06/03 10:52:25;;;;;;;5.18;3.97;;;25.00;50.10;;;;;;4999771;28;20050;-63
2023/06/03 10:55:03;;;;;;;8.60;4.10;;;25.10;49.90;;;;;;5004996;28;20042;-63
2023/06/03 10:57:53;;;;;;;9.07;4.20;;;25.10;49.70;;;;;;5005340;28;20030;-63
2023/06/03 11:01:16;;;;;;;6.03;3.88;;;25.20;48.70;;;;;;5006575;28;20049;-63
2023/06/03 11:03:59;;;;;;;6.50;3.92;;;25.30;49.10;;;;;;4921112;29;20136;-63
2023/06/03 11:06:28;;;;;;;4.82;4.03;;;25.40;49.10;;;;;;4919813;29;20040;-63
2023/06/03 11:09:15;;;;;;;6.03;4.07;;;25.40;48.70;;;;;;4968158;28;20038;-63
2023/06/03 11:11:41;;;;;;;8.00;3.75;;;25.50;47.90;;;;;;5006542;28;20119;-63
2023/06/03 11:14:07;;;;;;;10.95;4.00;;;25.50;48.50;;;;;;5006823;28;20125;-62
2023/06/03 11:16:57;;;;;;;4.85;3.92;;;25.60;49.30;;;;;;5003899;28;20107;-63
2023/06/03 11:19:36;;;;;;;6.15;4.32;;;25.60;48.10;;;;;;5008901;28;20405;-64
2023/06/03 11:22:07;;;;;;;7.53;4.07;;;25.60;47.60;;;;;;5010843;28;20062;-62
2023/06/03 11:24:39;;;;;;;5.53;3.67;;;25.60;47.80;;;;;;5010507;28;20029;-63
2023/06/03 11:27:12;;;;;;;4.97;3.72;;;25.60;47.80;;;;;;5011646;28;20046;-62
2023/06/03 11:29:47;;;;;;;5.30;4.10;;;25.60;48.20;;;;;;5005330;28;20592;-63
2023/06/03 11:32:20;;;;;;;4.68;3.80;;;25.60;47.10;;;;;;5006340;28;20521;-63
2023/06/03 11:34:50;;;;;;;5.38;4.18;;;25.60;47.80;;;;;;5008553;28;20038;-63
2023/06/03 11:37:19;;;;;;;3.95;3.58;;;25.60;47.40;;;;;;5000673;28;20124;-63
2023/06/03 11:40:05;;;;;;;9.30;4.07;;;25.60;47.60;;;;;;5006920;28;20046;-63
2023/06/03 11:42:49;;;;;;;6.70;4.38;;;25.70;47.10;;;;;;5009378;28;20529;-62
2023/06/03 11:45:18;;;;;;;6.47;4.10;;;25.70;47.50;;;;;;5009547;28;20046;-63
2023/06/03 11:47:47;;;;;;;5.57;4.10;;;25.80;47.40;;;;;;5007819;28;20113;-63
2023/06/03 11:50:13;;;;;;;6.63;4.00;;;25.90;46.70;;;;;;5008724;28;20521;-63
2023/06/03 11:52:38;;;;;;;5.97;3.80;;;25.80;47.00;;;;;;5009015;28;20108;-63
2023/06/03 11:55:04;;;;;;;4.88;3.78;;;25.90;47.10;;;;;;5009399;28;20109;-63
2023/06/03 11:57:30;;;;;;;4.93;3.67;;;26.00;46.70;;;;;;4992276;28;20052;-61
2023/06/03 11:59:57;;;;;;;4.53;4.00;;;25.90;46.90;;;;;;5008827;28;20397;-63
2023/06/03 12:02:22;;;;;;;5.25;3.88;;;26.00;46.60;;;;;;5009903;28;20394;-63
2023/06/03 12:04:48;;;;;;;4.88;3.92;;;26.10;46.80;;;;;;5003030;28;20100;-63
2023/06/03 12:07:17;;;;;;;4.90;3.70;;;26.10;46.80;;;;;;5007722;28;20069;-63
2023/06/03 12:09:43;;;;;;;4.95;3.80;;;26.10;46.30;;;;;;5008925;28;20034;-62
2023/06/03 12:12:10;;;;;;;9.20;3.97;;;26.10;46.30;;;;;;5009379;28;20048;-63
2023/06/03 12:14:38;;;;;;;6.78;3.58;;;26.20;46.20;;;;;;5007589;28;20121;-63
2023/06/03 12:17:23;;;;;;;4.70;3.55;;;26.10;46.60;;;;;;5009221;28;20062;-63
2023/06/03 12:19:51;;;;;;;5.07;3.55;;;26.10;45.70;;;;;;5005013;28;20158;-63
2023/06/03 12:22:22;;;;;;;4.68;2.95;;;26.20;46.20;;;;;;5006058;28;20042;-63
2023/06/03 12:24:48;;;;;;;6.82;3.20;;;26.30;46.30;;;;;;5008179;28;20069;-63
2023/06/03 12:27:22;;;;;;;7.75;4.00;;;26.30;45.90;;;;;;5009092;28;20072;-63
2023/06/03 12:29:50;;;;;;;5.18;3.65;;;26.30;45.10;;;;;;5007589;28;20033;-63
2023/06/03 12:32:17;;;;;;;5.25;3.83;;;26.30;45.70;;;;;;5008794;28;20405;-63
2023/06/03 12:34:44;;;;;;;4.00;3.60;;;26.30;45.70;;;;;;5006255;28;20069;-63
2023/06/03 12:37:12;;;;;;;5.90;3.53;;;26.30;45.40;;;;;;5004482;28;20033;-63
2023/06/03 12:39:48;;;;;;;7.13;3.70;;;26.30;45.20;;;;;;5005447;28;20037;-62
2023/06/03 12:42:18;;;;;;;5.13;3.80;;;26.30;44.50;;;;;;5006065;28;20489;-61
2023/06/03 12:44:47;;;;;;;3.92;3.05;;;26.30;44.50;;;;;;5002150;28;20037;-63
2023/06/03 12:47:15;;;;;;;3.88;3.45;;;26.30;44.50;;;;;;5005877;28;20233;-63
2023/06/03 12:49:42;;;;;;;4.28;3.45;;;26.30;44.80;;;;;;5006639;28;20119;-63
2023/06/03 12:52:19;;;;;;;6.35;3.63;;;26.40;44.80;;;;;;5006953;28;20067;-63